sensor_id;sensor_type;location;lat;lon;timestamp;P1;durP1;ratioP1;P2;durP2;ratioP2
2656;SDS011;1338;48.176;11.792;2024-03-22T00:00:04;20.20;;;14.77;;
2656;SDS011;1338;48.176;11.792;2024-03-22T00:02:39;20.27;;;14.80;;
2656;SDS011;1338;48.176;11.792;2024-03-22T00:05:05;17.67;;;14.83;;
2656;SDS011;1338;48.176;11.792;2024-03-22T00:07:33;17.00;;;15.07;;
2656;SDS011;1338;48.176;11.792;2024-03-22T00:09:59;19.40;;;14.73;;
2656;SDS011;1338;48.176;11.792;2024-03-22T00:12:26;16.50;;;14.80;;
2656;SDS011;1338;48.176;11.792;2024-03-22T00:14:53;16.87;;;14.80;;
2656;SDS011;1338;48.176;11.792;2024-03-22T00:17:20;16.93;;;14.13;;
2656;SDS011;1338;48.176;11.792;2024-03-22T00:19:47;19.00;;;15.37;;
2656;SDS011;1338;48.176;11.792;2024-03-22T00:22:14;19.77;;;15.80;;
2656;SDS011;1338;48.176;11.792;2024-03-22T00:24:41;18.53;;;15.20;;
2656;SDS011;1338;48.176;11.792;2024-03-22T00:27:08;20.37;;;16.97;;
2656;SDS011;1338;48.176;11.792;2024-03-22T00:29:34;18.67;;;16.17;;
2656;SDS011;1338;48.176;11.792;2024-03-22T00:32:03;18.90;;;15.60;;
2656;SDS011;1338;48.176;11.792;2024-03-22T00:34:29;18.60;;;16.43;;
2656;SDS011;1338;48.176;11.792;2024-03-22T00:36:56;21.97;;;18.40;;
2656;SDS011;1338;48.176;11.792;2024-03-22T00:39:22;21.77;;;17.53;;
2656;SDS011;1338;48.176;11.792;2024-03-22T00:41:52;18.43;;;16.20;;
2656;SDS011;1338;48.176;11.792;2024-03-22T00:44:19;19.90;;;16.50;;
2656;SDS011;1338;48.176;11.792;2024-03-22T00:46:46;20.47;;;16.70;;
2656;SDS011;1338;48.176;11.792;2024-03-22T00:49:14;20.57;;;17.20;;
2656;SDS011;1338;48.176;11.792;2024-03-22T00:51:41;20.40;;;17.20;;
2656;SDS011;1338;48.176;11.792;2024-03-22T00:54:08;20.40;;;17.40;;
2656;SDS011;1338;48.176;11.792;2024-03-22T00:56:36;18.87;;;15.23;;
2656;SDS011;1338;48.176;11.792;2024-03-22T00:59:02;20.47;;;16.37;;
2656;SDS011;1338;48.176;11.792;2024-03-22T01:01:29;23.07;;;17.47;;
2656;SDS011;1338;48.176;11.792;2024-03-22T01:03:55;23.60;;;17.37;;
2656;SDS011;1338;48.176;11.792;2024-03-22T01:06:24;21.00;;;16.27;;
2656;SDS011;1338;48.176;11.792;2024-03-22T01:08:52;19.33;;;16.23;;
2656;SDS011;1338;48.176;11.792;2024-03-22T01:11:19;19.57;;;15.73;;
2656;SDS011;1338;48.176;11.792;2024-03-22T01:13:46;23.10;;;17.93;;
2656;SDS011;1338;48.176;11.792;2024-03-22T01:16:14;22.10;;;16.33;;
2656;SDS011;1338;48.176;11.792;2024-03-22T01:18:40;19.57;;;16.17;;
2656;SDS011;1338;48.176;11.792;2024-03-22T01:21:08;20.73;;;16.33;;
2656;SDS011;1338;48.176;11.792;2024-03-22T01:23:35;23.53;;;17.20;;
2656;SDS011;1338;48.176;11.792;2024-03-22T01:26:02;20.93;;;16.57;;
2656;SDS011;1338;48.176;11.792;2024-03-22T01:28:28;21.83;;;16.73;;
2656;SDS011;1338;48.176;11.792;2024-03-22T01:30:56;23.10;;;18.73;;
2656;SDS011;1338;48.176;11.792;2024-03-22T01:33:22;23.13;;;16.80;;
2656;SDS011;1338;48.176;11.792;2024-03-22T01:35:49;20.87;;;17.20;;
2656;SDS011;1338;48.176;11.792;2024-03-22T01:38:15;21.57;;;17.80;;
2656;SDS011;1338;48.176;11.792;2024-03-22T01:40:43;20.30;;;16.73;;
2656;SDS011;1338;48.176;11.792;2024-03-22T01:43:10;20.80;;;16.20;;
2656;SDS011;1338;48.176;11.792;2024-03-22T01:45:37;22.97;;;17.90;;
2656;SDS011;1338;48.176;11.792;2024-03-22T01:48:03;21.90;;;17.50;;
2656;SDS011;1338;48.176;11.792;2024-03-22T01:50:30;20.50;;;16.60;;
2656;SDS011;1338;48.176;11.792;2024-03-22T01:52:57;22.00;;;17.77;;
2656;SDS011;1338;48.176;11.792;2024-03-22T01:55:24;16.43;;;13.70;;
2656;SDS011;1338;48.176;11.792;2024-03-22T01:57:52;21.47;;;16.63;;
2656;SDS011;1338;48.176;11.792;2024-03-22T02:00:21;20.80;;;16.70;;
2656;SDS011;1338;48.176;11.792;2024-03-22T02:02:47;22.53;;;18.13;;
2656;SDS011;1338;48.176;11.792;2024-03-22T02:05:15;21.93;;;16.83;;
2656;SDS011;1338;48.176;11.792;2024-03-22T02:07:44;20.50;;;16.70;;
2656;SDS011;1338;48.176;11.792;2024-03-22T02:10:11;20.40;;;16.53;;
2656;SDS011;1338;48.176;11.792;2024-03-22T02:12:38;18.83;;;15.40;;
2656;SDS011;1338;48.176;11.792;2024-03-22T02:15:07;21.50;;;16.40;;
2656;SDS011;1338;48.176;11.792;2024-03-22T02:17:34;21.20;;;16.93;;
2656;SDS011;1338;48.176;11.792;2024-03-22T02:20:01;20.27;;;16.20;;
2656;SDS011;1338;48.176;11.792;2024-03-22T02:22:29;20.50;;;17.33;;
2656;SDS011;1338;48.176;11.792;2024-03-22T02:24:58;20.43;;;14.80;;
2656;SDS011;1338;48.176;11.792;2024-03-22T02:27:24;22.57;;;16.70;;
2656;SDS011;1338;48.176;11.792;2024-03-22T02:29:52;22.60;;;16.60;;
2656;SDS011;1338;48.176;11.792;2024-03-22T02:32:18;20.57;;;16.47;;
2656;SDS011;1338;48.176;11.792;2024-03-22T02:34:45;22.00;;;16.30;;
2656;SDS011;1338;48.176;11.792;2024-03-22T02:37:11;22.17;;;16.77;;
2656;SDS011;1338;48.176;11.792;2024-03-22T02:39:39;21.67;;;17.10;;
2656;SDS011;1338;48.176;11.792;2024-03-22T02:42:06;20.40;;;16.80;;
2656;SDS011;1338;48.176;11.792;2024-03-22T02:44:34;22.90;;;16.47;;
2656;SDS011;1338;48.176;11.792;2024-03-22T02:47:03;22.07;;;16.87;;
2656;SDS011;1338;48.176;11.792;2024-03-22T02:49:31;23.27;;;16.07;;
2656;SDS011;1338;48.176;11.792;2024-03-22T02:51:57;18.93;;;15.10;;
2656;SDS011;1338;48.176;11.792;2024-03-22T02:54:24;22.40;;;16.30;;
2656;SDS011;1338;48.176;11.792;2024-03-22T02:56:50;20.77;;;17.10;;
2656;SDS011;1338;48.176;11.792;2024-03-22T02:59:18;21.87;;;16.10;;
2656;SDS011;1338;48.176;11.792;2024-03-22T03:01:45;21.17;;;16.90;;
2656;SDS011;1338;48.176;11.792;2024-03-22T03:04:12;20.00;;;15.17;;
2656;SDS011;1338;48.176;11.792;2024-03-22T03:06:38;18.53;;;15.73;;
2656;SDS011;1338;48.176;11.792;2024-03-22T03:09:05;20.93;;;15.73;;
2656;SDS011;1338;48.176;11.792;2024-03-22T03:11:33;21.23;;;15.53;;
2656;SDS011;1338;48.176;11.792;2024-03-22T03:14:01;23.67;;;16.67;;
2656;SDS011;1338;48.176;11.792;2024-03-22T03:16:28;24.40;;;16.73;;
2656;SDS011;1338;48.176;11.792;2024-03-22T03:18:55;24.03;;;17.77;;
2656;SDS011;1338;48.176;11.792;2024-03-22T03:21:21;22.43;;;16.97;;
2656;SDS011;1338;48.176;11.792;2024-03-22T03:23:49;22.93;;;17.13;;
2656;SDS011;1338;48.176;11.792;2024-03-22T03:26:15;21.57;;;16.93;;
2656;SDS011;1338;48.176;11.792;2024-03-22T03:28:42;21.70;;;16.57;;
2656;SDS011;1338;48.176;11.792;2024-03-22T03:31:08;20.47;;;15.67;;
2656;SDS011;1338;48.176;11.792;2024-03-22T03:33:37;20.87;;;15.57;;
2656;SDS011;1338;48.176;11.792;2024-03-22T03:36:03;21.47;;;17.23;;
2656;SDS011;1338;48.176;11.792;2024-03-22T03:38:31;17.80;;;14.30;;
2656;SDS011;1338;48.176;11.792;2024-03-22T03:40:57;21.00;;;16.17;;
2656;SDS011;1338;48.176;11.792;2024-03-22T03:43:24;20.30;;;16.67;;
2656;SDS011;1338;48.176;11.792;2024-03-22T03:45:50;20.20;;;15.60;;
2656;SDS011;1338;48.176;11.792;2024-03-22T03:48:19;19.50;;;15.90;;
2656;SDS011;1338;48.176;11.792;2024-03-22T03:50:52;18.73;;;15.27;;
2656;SDS011;1338;48.176;11.792;2024-03-22T03:53:20;20.43;;;16.00;;
2656;SDS011;1338;48.176;11.792;2024-03-22T03:55:46;21.00;;;16.40;;
2656;SDS011;1338;48.176;11.792;2024-03-22T03:58:13;21.37;;;16.77;;
2656;SDS011;1338;48.176;11.792;2024-03-22T04:00:39;21.83;;;15.23;;
2656;SDS011;1338;48.176;11.792;2024-03-22T04:03:06;17.03;;;13.77;;
2656;SDS011;1338;48.176;11.792;2024-03-22T04:05:33;21.00;;;16.67;;
2656;SDS011;1338;48.176;11.792;2024-03-22T04:08:01;22.83;;;17.47;;
2656;SDS011;1338;48.176;11.792;2024-03-22T04:10:28;21.93;;;14.90;;
2656;SDS011;1338;48.176;11.792;2024-03-22T04:12:55;21.60;;;14.40;;
2656;SDS011;1338;48.176;11.792;2024-03-22T04:15:21;22.50;;;16.10;;
2656;SDS011;1338;48.176;11.792;2024-03-22T04:17:48;19.00;;;14.33;;
2656;SDS011;1338;48.176;11.792;2024-03-22T04:20:15;20.53;;;15.80;;
2656;SDS011;1338;48.176;11.792;2024-03-22T04:22:42;19.80;;;14.30;;
2656;SDS011;1338;48.176;11.792;2024-03-22T04:25:09;20.53;;;15.30;;
2656;SDS011;1338;48.176;11.792;2024-03-22T04:27:36;19.07;;;14.17;;
2656;SDS011;1338;48.176;11.792;2024-03-22T04:30:03;19.97;;;14.30;;
2656;SDS011;1338;48.176;11.792;2024-03-22T04:32:30;21.43;;;14.00;;
2656;SDS011;1338;48.176;11.792;2024-03-22T04:34:56;21.53;;;15.70;;
2656;SDS011;1338;48.176;11.792;2024-03-22T04:37:24;17.77;;;14.70;;
2656;SDS011;1338;48.176;11.792;2024-03-22T04:39:51;19.10;;;14.60;;
2656;SDS011;1338;48.176;11.792;2024-03-22T04:42:19;18.23;;;14.20;;
2656;SDS011;1338;48.176;11.792;2024-03-22T04:44:46;15.80;;;13.47;;
2656;SDS011;1338;48.176;11.792;2024-03-22T04:47:14;14.90;;;12.50;;
2656;SDS011;1338;48.176;11.792;2024-03-22T04:49:41;16.03;;;13.20;;
2656;SDS011;1338;48.176;11.792;2024-03-22T04:52:07;18.33;;;13.90;;
2656;SDS011;1338;48.176;11.792;2024-03-22T04:54:34;18.93;;;13.40;;
2656;SDS011;1338;48.176;11.792;2024-03-22T04:57:00;16.30;;;12.83;;
2656;SDS011;1338;48.176;11.792;2024-03-22T04:59:29;17.87;;;13.67;;
2656;SDS011;1338;48.176;11.792;2024-03-22T05:01:55;15.77;;;12.67;;
2656;SDS011;1338;48.176;11.792;2024-03-22T05:04:22;15.47;;;12.50;;
2656;SDS011;1338;48.176;11.792;2024-03-22T05:06:49;16.03;;;12.50;;
2656;SDS011;1338;48.176;11.792;2024-03-22T05:09:16;16.70;;;12.80;;
2656;SDS011;1338;48.176;11.792;2024-03-22T05:11:42;14.93;;;12.70;;
2656;SDS011;1338;48.176;11.792;2024-03-22T05:14:14;17.43;;;12.43;;
2656;SDS011;1338;48.176;11.792;2024-03-22T05:16:42;14.70;;;11.30;;
2656;SDS011;1338;48.176;11.792;2024-03-22T05:19:09;15.30;;;12.20;;
2656;SDS011;1338;48.176;11.792;2024-03-22T05:21:35;19.87;;;14.40;;
2656;SDS011;1338;48.176;11.792;2024-03-22T05:24:02;17.87;;;13.80;;
2656;SDS011;1338;48.176;11.792;2024-03-22T05:26:28;20.47;;;13.13;;
2656;SDS011;1338;48.176;11.792;2024-03-22T05:28:57;15.53;;;12.80;;
2656;SDS011;1338;48.176;11.792;2024-03-22T05:31:23;16.23;;;13.03;;
2656;SDS011;1338;48.176;11.792;2024-03-22T05:33:52;17.67;;;13.53;;
2656;SDS011;1338;48.176;11.792;2024-03-22T05:36:18;16.87;;;12.70;;
2656;SDS011;1338;48.176;11.792;2024-03-22T05:38:45;17.70;;;13.67;;
2656;SDS011;1338;48.176;11.792;2024-03-22T05:41:11;17.37;;;13.47;;
2656;SDS011;1338;48.176;11.792;2024-03-22T05:43:38;15.97;;;12.73;;
2656;SDS011;1338;48.176;11.792;2024-03-22T05:46:05;15.33;;;12.53;;
2656;SDS011;1338;48.176;11.792;2024-03-22T05:48:32;17.90;;;12.67;;
2656;SDS011;1338;48.176;11.792;2024-03-22T05:50:59;23.67;;;15.90;;
2656;SDS011;1338;48.176;11.792;2024-03-22T05:53:27;17.50;;;14.03;;
2656;SDS011;1338;48.176;11.792;2024-03-22T05:55:53;18.70;;;14.20;;
2656;SDS011;1338;48.176;11.792;2024-03-22T05:58:20;17.07;;;13.63;;
2656;SDS011;1338;48.176;11.792;2024-03-22T06:00:46;18.73;;;14.00;;
2656;SDS011;1338;48.176;11.792;2024-03-22T06:03:13;16.60;;;12.60;;
2656;SDS011;1338;48.176;11.792;2024-03-22T06:05:40;16.40;;;14.17;;
2656;SDS011;1338;48.176;11.792;2024-03-22T06:08:08;14.53;;;12.17;;
2656;SDS011;1338;48.176;11.792;2024-03-22T06:10:35;17.60;;;13.53;;
2656;SDS011;1338;48.176;11.792;2024-03-22T06:13:02;16.07;;;12.60;;
2656;SDS011;1338;48.176;11.792;2024-03-22T06:15:28;14.97;;;10.67;;
2656;SDS011;1338;48.176;11.792;2024-03-22T06:17:56;16.40;;;13.03;;
2656;SDS011;1338;48.176;11.792;2024-03-22T06:20:22;14.40;;;11.90;;
2656;SDS011;1338;48.176;11.792;2024-03-22T06:22:49;19.50;;;13.70;;
2656;SDS011;1338;48.176;11.792;2024-03-22T06:25:17;17.53;;;13.60;;
2656;SDS011;1338;48.176;11.792;2024-03-22T06:27:44;18.37;;;12.97;;
2656;SDS011;1338;48.176;11.792;2024-03-22T06:30:10;17.07;;;12.87;;
2656;SDS011;1338;48.176;11.792;2024-03-22T06:32:38;15.50;;;12.40;;
2656;SDS011;1338;48.176;11.792;2024-03-22T06:35:04;17.33;;;13.50;;
2656;SDS011;1338;48.176;11.792;2024-03-22T06:37:32;19.87;;;13.23;;
2656;SDS011;1338;48.176;11.792;2024-03-22T06:39:58;16.23;;;12.57;;
2656;SDS011;1338;48.176;11.792;2024-03-22T06:42:27;18.17;;;14.03;;
2656;SDS011;1338;48.176;11.792;2024-03-22T06:44:53;20.40;;;13.93;;
2656;SDS011;1338;48.176;11.792;2024-03-22T06:47:20;16.23;;;13.63;;
2656;SDS011;1338;48.176;11.792;2024-03-22T06:49:47;16.10;;;13.80;;
2656;SDS011;1338;48.176;11.792;2024-03-22T06:52:14;19.13;;;15.00;;
2656;SDS011;1338;48.176;11.792;2024-03-22T06:54:40;21.27;;;14.00;;
2656;SDS011;1338;48.176;11.792;2024-03-22T06:57:07;20.60;;;13.83;;
2656;SDS011;1338;48.176;11.792;2024-03-22T06:59:35;16.33;;;13.97;;
2656;SDS011;1338;48.176;11.792;2024-03-22T07:02:02;17.13;;;13.53;;
2656;SDS011;1338;48.176;11.792;2024-03-22T07:04:29;19.63;;;14.03;;
2656;SDS011;1338;48.176;11.792;2024-03-22T07:06:56;20.73;;;15.87;;
2656;SDS011;1338;48.176;11.792;2024-03-22T07:09:22;19.07;;;14.33;;
2656;SDS011;1338;48.176;11.792;2024-03-22T07:11:50;18.10;;;13.27;;
2656;SDS011;1338;48.176;11.792;2024-03-22T07:14:16;18.33;;;14.00;;
2656;SDS011;1338;48.176;11.792;2024-03-22T07:16:44;17.33;;;13.60;;
2656;SDS011;1338;48.176;11.792;2024-03-22T07:19:11;18.37;;;13.00;;
2656;SDS011;1338;48.176;11.792;2024-03-22T07:21:38;19.13;;;13.30;;
2656;SDS011;1338;48.176;11.792;2024-03-22T07:24:04;17.53;;;14.60;;
2656;SDS011;1338;48.176;11.792;2024-03-22T07:26:32;18.67;;;13.30;;
2656;SDS011;1338;48.176;11.792;2024-03-22T07:28:58;18.20;;;14.57;;
2656;SDS011;1338;48.176;11.792;2024-03-22T07:31:25;15.53;;;12.77;;
2656;SDS011;1338;48.176;11.792;2024-03-22T07:33:54;17.27;;;13.23;;
2656;SDS011;1338;48.176;11.792;2024-03-22T07:36:21;17.27;;;13.60;;
2656;SDS011;1338;48.176;11.792;2024-03-22T07:38:50;15.30;;;11.37;;
2656;SDS011;1338;48.176;11.792;2024-03-22T07:41:17;14.27;;;12.00;;
2656;SDS011;1338;48.176;11.792;2024-03-22T07:43:44;17.30;;;12.90;;
2656;SDS011;1338;48.176;11.792;2024-03-22T07:46:11;16.43;;;13.90;;
2656;SDS011;1338;48.176;11.792;2024-03-22T07:48:37;15.60;;;13.20;;
2656;SDS011;1338;48.176;11.792;2024-03-22T07:51:06;17.27;;;13.70;;
2656;SDS011;1338;48.176;11.792;2024-03-22T07:53:32;14.90;;;13.40;;
2656;SDS011;1338;48.176;11.792;2024-03-22T07:55:59;13.97;;;12.00;;
2656;SDS011;1338;48.176;11.792;2024-03-22T07:58:26;13.17;;;11.50;;
2656;SDS011;1338;48.176;11.792;2024-03-22T08:00:53;13.53;;;11.90;;
2656;SDS011;1338;48.176;11.792;2024-03-22T08:03:19;15.47;;;12.80;;
2656;SDS011;1338;48.176;11.792;2024-03-22T08:05:46;14.53;;;11.50;;
2656;SDS011;1338;48.176;11.792;2024-03-22T08:08:14;12.67;;;10.87;;
2656;SDS011;1338;48.176;11.792;2024-03-22T08:10:41;14.07;;;11.43;;
2656;SDS011;1338;48.176;11.792;2024-03-22T08:13:07;13.27;;;11.70;;
2656;SDS011;1338;48.176;11.792;2024-03-22T08:15:34;12.93;;;11.57;;
2656;SDS011;1338;48.176;11.792;2024-03-22T08:18:01;13.50;;;11.70;;
2656;SDS011;1338;48.176;11.792;2024-03-22T08:20:28;13.30;;;11.67;;
2656;SDS011;1338;48.176;11.792;2024-03-22T08:22:55;13.27;;;11.87;;
2656;SDS011;1338;48.176;11.792;2024-03-22T08:25:24;13.30;;;11.90;;
2656;SDS011;1338;48.176;11.792;2024-03-22T08:27:50;16.50;;;12.23;;
2656;SDS011;1338;48.176;11.792;2024-03-22T08:30:20;14.03;;;10.87;;
2656;SDS011;1338;48.176;11.792;2024-03-22T08:32:47;13.07;;;11.77;;
2656;SDS011;1338;48.176;11.792;2024-03-22T08:35:14;13.03;;;11.60;;
2656;SDS011;1338;48.176;11.792;2024-03-22T08:37:41;13.27;;;11.40;;
2656;SDS011;1338;48.176;11.792;2024-03-22T08:40:08;14.30;;;12.80;;
2656;SDS011;1338;48.176;11.792;2024-03-22T08:42:38;14.33;;;12.83;;
2656;SDS011;1338;48.176;11.792;2024-03-22T08:45:07;12.37;;;11.00;;
2656;SDS011;1338;48.176;11.792;2024-03-22T08:47:35;15.70;;;12.37;;
2656;SDS011;1338;48.176;11.792;2024-03-22T08:50:01;12.47;;;11.17;;
2656;SDS011;1338;48.176;11.792;2024-03-22T08:52:29;15.27;;;13.77;;
2656;SDS011;1338;48.176;11.792;2024-03-22T08:54:57;13.83;;;12.43;;
2656;SDS011;1338;48.176;11.792;2024-03-22T08:57:24;13.50;;;12.10;;
2656;SDS011;1338;48.176;11.792;2024-03-22T08:59:52;14.20;;;12.50;;
2656;SDS011;1338;48.176;11.792;2024-03-22T09:02:19;13.67;;;12.30;;
2656;SDS011;1338;48.176;11.792;2024-03-22T09:04:45;12.60;;;11.30;;
2656;SDS011;1338;48.176;11.792;2024-03-22T09:07:13;12.97;;;10.83;;
2656;SDS011;1338;48.176;11.792;2024-03-22T09:09:39;13.93;;;12.53;;
2656;SDS011;1338;48.176;11.792;2024-03-22T09:12:06;12.30;;;11.10;;
2656;SDS011;1338;48.176;11.792;2024-03-22T09:14:33;13.23;;;11.83;;
2656;SDS011;1338;48.176;11.792;2024-03-22T09:17:01;12.67;;;11.37;;
2656;SDS011;1338;48.176;11.792;2024-03-22T09:19:28;11.97;;;10.67;;
2656;SDS011;1338;48.176;11.792;2024-03-22T09:21:55;13.23;;;11.70;;
2656;SDS011;1338;48.176;11.792;2024-03-22T09:24:21;13.40;;;11.67;;
2656;SDS011;1338;48.176;11.792;2024-03-22T09:26:49;13.70;;;12.40;;
2656;SDS011;1338;48.176;11.792;2024-03-22T09:29:15;13.30;;;12.03;;
2656;SDS011;1338;48.176;11.792;2024-03-22T09:31:43;13.43;;;11.70;;
2656;SDS011;1338;48.176;11.792;2024-03-22T09:34:13;14.73;;;13.27;;
2656;SDS011;1338;48.176;11.792;2024-03-22T09:36:41;14.20;;;12.73;;
2656;SDS011;1338;48.176;11.792;2024-03-22T09:39:08;13.83;;;12.50;;
2656;SDS011;1338;48.176;11.792;2024-03-22T09:41:35;13.70;;;12.40;;
2656;SDS011;1338;48.176;11.792;2024-03-22T09:44:08;12.50;;;10.53;;
2656;SDS011;1338;48.176;11.792;2024-03-22T09:46:39;12.87;;;11.60;;
2656;SDS011;1338;48.176;11.792;2024-03-22T09:49:07;15.40;;;10.90;;
2656;SDS011;1338;48.176;11.792;2024-03-22T09:51:37;11.87;;;10.77;;
2656;SDS011;1338;48.176;11.792;2024-03-22T09:54:04;12.73;;;11.47;;
2656;SDS011;1338;48.176;11.792;2024-03-22T09:56:31;13.27;;;11.80;;
2656;SDS011;1338;48.176;11.792;2024-03-22T09:58:58;13.70;;;11.87;;
2656;SDS011;1338;48.176;11.792;2024-03-22T10:01:24;13.20;;;11.87;;
2656;SDS011;1338;48.176;11.792;2024-03-22T10:03:52;12.30;;;11.20;;
2656;SDS011;1338;48.176;11.792;2024-03-22T10:06:20;12.23;;;11.00;;
2656;SDS011;1338;48.176;11.792;2024-03-22T10:34:38;10.97;;;9.40;;
2656;SDS011;1338;48.176;11.792;2024-03-22T10:37:08;12.03;;;9.50;;
2656;SDS011;1338;48.176;11.792;2024-03-22T10:39:35;10.37;;;9.37;;
2656;SDS011;1338;48.176;11.792;2024-03-22T10:42:05;10.20;;;9.20;;
2656;SDS011;1338;48.176;11.792;2024-03-22T10:44:36;10.20;;;9.20;;
2656;SDS011;1338;48.176;11.792;2024-03-22T10:47:04;10.97;;;9.87;;
2656;SDS011;1338;48.176;11.792;2024-03-22T10:49:32;10.57;;;9.67;;
2656;SDS011;1338;48.176;11.792;2024-03-22T10:52:04;12.30;;;11.13;;
2656;SDS011;1338;48.176;11.792;2024-03-22T10:54:33;11.00;;;10.00;;
2656;SDS011;1338;48.176;11.792;2024-03-22T10:57:03;13.40;;;10.90;;
2656;SDS011;1338;48.176;11.792;2024-03-22T10:59:33;10.80;;;9.80;;
2656;SDS011;1338;48.176;11.792;2024-03-22T11:02:02;11.23;;;10.30;;
2656;SDS011;1338;48.176;11.792;2024-03-22T11:04:30;10.87;;;9.90;;
2656;SDS011;1338;48.176;11.792;2024-03-22T11:06:56;11.10;;;10.00;;
2656;SDS011;1338;48.176;11.792;2024-03-22T11:09:26;10.40;;;9.50;;
2656;SDS011;1338;48.176;11.792;2024-03-22T11:11:53;10.10;;;9.20;;
2656;SDS011;1338;48.176;11.792;2024-03-22T11:14:22;10.10;;;9.20;;
2656;SDS011;1338;48.176;11.792;2024-03-22T11:16:49;10.43;;;9.50;;
2656;SDS011;1338;48.176;11.792;2024-03-22T11:19:18;11.50;;;10.40;;
2656;SDS011;1338;48.176;11.792;2024-03-22T11:21:44;11.10;;;10.00;;
2656;SDS011;1338;48.176;11.792;2024-03-22T11:24:11;12.60;;;10.50;;
2656;SDS011;1338;48.176;11.792;2024-03-22T11:26:39;10.90;;;9.90;;
2656;SDS011;1338;48.176;11.792;2024-03-22T11:29:06;12.03;;;10.83;;
2656;SDS011;1338;48.176;11.792;2024-03-22T11:31:33;10.13;;;9.23;;
2656;SDS011;1338;48.176;11.792;2024-03-22T11:34:02;10.90;;;10.00;;
2656;SDS011;1338;48.176;11.792;2024-03-22T11:36:28;11.20;;;10.10;;
2656;SDS011;1338;48.176;11.792;2024-03-22T11:38:56;10.93;;;9.97;;
2656;SDS011;1338;48.176;11.792;2024-03-22T11:41:24;11.27;;;10.33;;
2656;SDS011;1338;48.176;11.792;2024-03-22T11:43:55;11.93;;;10.73;;
2656;SDS011;1338;48.176;11.792;2024-03-22T11:46:23;11.00;;;9.90;;
2656;SDS011;1338;48.176;11.792;2024-03-22T11:48:52;10.10;;;9.20;;
2656;SDS011;1338;48.176;11.792;2024-03-22T11:51:18;12.37;;;11.27;;
2656;SDS011;1338;48.176;11.792;2024-03-22T11:53:49;10.07;;;9.10;;
2656;SDS011;1338;48.176;11.792;2024-03-22T11:56:18;11.33;;;9.80;;
2656;SDS011;1338;48.176;11.792;2024-03-22T11:58:46;9.97;;;9.07;;
2656;SDS011;1338;48.176;11.792;2024-03-22T12:01:14;9.80;;;8.90;;
2656;SDS011;1338;48.176;11.792;2024-03-22T12:03:45;10.23;;;9.37;;
2656;SDS011;1338;48.176;11.792;2024-03-22T12:06:12;12.03;;;10.50;;
2656;SDS011;1338;48.176;11.792;2024-03-22T12:08:41;9.67;;;8.77;;
2656;SDS011;1338;48.176;11.792;2024-03-22T12:11:07;9.70;;;8.80;;
2656;SDS011;1338;48.176;11.792;2024-03-22T12:13:37;11.20;;;10.20;;
2656;SDS011;1338;48.176;11.792;2024-03-22T12:16:03;10.90;;;9.80;;
2656;SDS011;1338;48.176;11.792;2024-03-22T12:18:32;11.20;;;10.20;;
2656;SDS011;1338;48.176;11.792;2024-03-22T12:20:59;9.57;;;8.70;;
2656;SDS011;1338;48.176;11.792;2024-03-22T12:23:26;9.80;;;9.00;;
2656;SDS011;1338;48.176;11.792;2024-03-22T12:25:52;10.53;;;9.53;;
2656;SDS011;1338;48.176;11.792;2024-03-22T12:28:21;9.77;;;6.93;;
2656;SDS011;1338;48.176;11.792;2024-03-22T12:30:47;9.93;;;9.03;;
2656;SDS011;1338;48.176;11.792;2024-03-22T12:33:15;10.63;;;9.57;;
2656;SDS011;1338;48.176;11.792;2024-03-22T12:35:43;9.50;;;8.70;;
2656;SDS011;1338;48.176;11.792;2024-03-22T12:38:11;10.60;;;9.70;;
2656;SDS011;1338;48.176;11.792;2024-03-22T12:40:39;10.77;;;9.77;;
2656;SDS011;1338;48.176;11.792;2024-03-22T12:43:07;9.20;;;8.50;;
2656;SDS011;1338;48.176;11.792;2024-03-22T12:45:35;9.60;;;8.80;;
2656;SDS011;1338;48.176;11.792;2024-03-22T12:48:02;10.10;;;9.10;;
2656;SDS011;1338;48.176;11.792;2024-03-22T12:50:29;10.67;;;9.77;;
2656;SDS011;1338;48.176;11.792;2024-03-22T12:52:58;10.10;;;9.20;;
2656;SDS011;1338;48.176;11.792;2024-03-22T12:55:24;9.97;;;9.07;;
2656;SDS011;1338;48.176;11.792;2024-03-22T12:57:53;9.70;;;8.70;;
2656;SDS011;1338;48.176;11.792;2024-03-22T13:00:20;8.10;;;7.40;;
2656;SDS011;1338;48.176;11.792;2024-03-22T13:02:47;8.33;;;7.53;;
2656;SDS011;1338;48.176;11.792;2024-03-22T13:05:13;8.80;;;8.00;;
2656;SDS011;1338;48.176;11.792;2024-03-22T13:07:41;9.23;;;8.47;;
2656;SDS011;1338;48.176;11.792;2024-03-22T13:10:09;9.53;;;8.73;;
2656;SDS011;1338;48.176;11.792;2024-03-22T13:12:37;9.13;;;8.33;;
2656;SDS011;1338;48.176;11.792;2024-03-22T13:15:03;8.87;;;7.70;;
2656;SDS011;1338;48.176;11.792;2024-03-22T13:17:31;9.07;;;8.27;;
2656;SDS011;1338;48.176;11.792;2024-03-22T13:19:57;9.30;;;8.50;;
2656;SDS011;1338;48.176;11.792;2024-03-22T13:22:25;10.60;;;9.70;;
2656;SDS011;1338;48.176;11.792;2024-03-22T13:24:51;10.40;;;9.47;;
2656;SDS011;1338;48.176;11.792;2024-03-22T13:27:20;9.57;;;8.20;;
2656;SDS011;1338;48.176;11.792;2024-03-22T13:29:48;9.60;;;8.90;;
2656;SDS011;1338;48.176;11.792;2024-03-22T13:32:15;7.40;;;6.70;;
2656;SDS011;1338;48.176;11.792;2024-03-22T13:34:43;9.30;;;8.47;;
2656;SDS011;1338;48.176;11.792;2024-03-22T13:37:10;8.33;;;7.60;;
2656;SDS011;1338;48.176;11.792;2024-03-22T13:39:36;8.30;;;7.50;;
2656;SDS011;1338;48.176;11.792;2024-03-22T13:42:04;8.80;;;8.00;;
2656;SDS011;1338;48.176;11.792;2024-03-22T13:44:33;8.73;;;7.37;;
2656;SDS011;1338;48.176;11.792;2024-03-22T13:47:00;9.40;;;8.70;;
2656;SDS011;1338;48.176;11.792;2024-03-22T13:49:26;8.53;;;7.73;;
2656;SDS011;1338;48.176;11.792;2024-03-22T13:51:53;8.10;;;7.40;;
2656;SDS011;1338;48.176;11.792;2024-03-22T13:54:20;7.70;;;7.10;;
2656;SDS011;1338;48.176;11.792;2024-03-22T13:56:47;7.87;;;7.27;;
2656;SDS011;1338;48.176;11.792;2024-03-22T13:59:13;7.33;;;6.80;;
2656;SDS011;1338;48.176;11.792;2024-03-22T14:01:43;9.00;;;8.10;;
2656;SDS011;1338;48.176;11.792;2024-03-22T14:04:10;8.80;;;7.90;;
2656;SDS011;1338;48.176;11.792;2024-03-22T14:06:38;7.53;;;6.90;;
2656;SDS011;1338;48.176;11.792;2024-03-22T14:09:04;8.67;;;7.80;;
2656;SDS011;1338;48.176;11.792;2024-03-22T14:11:35;8.53;;;7.73;;
2656;SDS011;1338;48.176;11.792;2024-03-22T14:14:02;9.47;;;8.57;;
2656;SDS011;1338;48.176;11.792;2024-03-22T14:16:29;8.77;;;6.90;;
2656;SDS011;1338;48.176;11.792;2024-03-22T14:18:57;7.10;;;6.60;;
2656;SDS011;1338;48.176;11.792;2024-03-22T14:21:24;7.23;;;6.63;;
2656;SDS011;1338;48.176;11.792;2024-03-22T14:23:50;6.93;;;6.33;;
2656;SDS011;1338;48.176;11.792;2024-03-22T14:26:18;6.77;;;6.27;;
2656;SDS011;1338;48.176;11.792;2024-03-22T14:28:44;7.20;;;6.60;;
2656;SDS011;1338;48.176;11.792;2024-03-22T14:31:12;6.83;;;6.33;;
2656;SDS011;1338;48.176;11.792;2024-03-22T14:33:39;7.10;;;6.03;;
2656;SDS011;1338;48.176;11.792;2024-03-22T14:36:08;5.63;;;5.23;;
2656;SDS011;1338;48.176;11.792;2024-03-22T14:38:36;6.23;;;5.63;;
2656;SDS011;1338;48.176;11.792;2024-03-22T14:41:02;5.70;;;5.20;;
2656;SDS011;1338;48.176;11.792;2024-03-22T14:43:29;5.37;;;4.87;;
2656;SDS011;1338;48.176;11.792;2024-03-22T14:45:57;4.10;;;3.80;;
2656;SDS011;1338;48.176;11.792;2024-03-22T14:48:24;4.43;;;4.13;;
2656;SDS011;1338;48.176;11.792;2024-03-22T14:50:50;3.93;;;3.63;;
2656;SDS011;1338;48.176;11.792;2024-03-22T14:53:20;4.20;;;3.90;;
2656;SDS011;1338;48.176;11.792;2024-03-22T14:55:53;3.97;;;3.67;;
2656;SDS011;1338;48.176;11.792;2024-03-22T14:58:23;4.00;;;3.63;;
2656;SDS011;1338;48.176;11.792;2024-03-22T15:00:50;4.60;;;4.20;;
2656;SDS011;1338;48.176;11.792;2024-03-22T15:03:18;3.70;;;3.50;;
2656;SDS011;1338;48.176;11.792;2024-03-22T15:05:45;4.20;;;3.80;;